<?xml version="1.0" encoding="UTF-8" standalone="no" ?>
<gpx xmlns="http://www.topografix.com/GPX/1/1" xmlns:xsi="http://www.w3.org/2001/XMLSchema-instance" xsi:schemaLocation="http://www.topografix.com/GPX/1/1 http://www.topografix.com/GPX/1/1/gpx.xsd" version="1.1" creator="VisuGPX - https://www.visugpx.com">
  <metadata>
    <name>Sentheim petit train</name>
    <desc><![CDATA[Marche Sentheim petit train 2016]]></desc>
  </metadata>
  <trk>
    <name><![CDATA[Sentheim petit train_1]]></name>
    <trkseg>
      <trkpt lat="47.75337" lon="7.05141">
        <ele>368</ele>
        <time>2016-07-31T12:55:48Z</time>
      </trkpt>
      <trkpt lat="47.75337" lon="7.05141">
        <ele>395</ele>
        <time>2016-07-31T12:55:53Z</time>
      </trkpt>
      <trkpt lat="47.75333" lon="7.05165">
        <ele>408</ele>
        <time>2016-07-31T12:56:00Z</time>
      </trkpt>
      <trkpt lat="47.75329" lon="7.05179">
        <ele>410</ele>
        <time>2016-07-31T12:56:10Z</time>
      </trkpt>
      <trkpt lat="47.75325" lon="7.05202">
        <ele>417</ele>
        <time>2016-07-31T12:56:21Z</time>
      </trkpt>
      <trkpt lat="47.75321" lon="7.05225">
        <ele>421</ele>
        <time>2016-07-31T12:56:34Z</time>
      </trkpt>
      <trkpt lat="47.75316" lon="7.05237">
        <ele>418</ele>
        <time>2016-07-31T12:56:46Z</time>
      </trkpt>
      <trkpt lat="47.75313" lon="7.05255">
        <ele>419</ele>
        <time>2016-07-31T12:56:56Z</time>
      </trkpt>
      <trkpt lat="47.75309" lon="7.05279">
        <ele>419</ele>
        <time>2016-07-31T12:57:12Z</time>
      </trkpt>
      <trkpt lat="47.75301" lon="7.0531">
        <ele>419</ele>
        <time>2016-07-31T12:57:30Z</time>
      </trkpt>
      <trkpt lat="47.75297" lon="7.05333">
        <ele>417</ele>
        <time>2016-07-31T12:57:47Z</time>
      </trkpt>
      <trkpt lat="47.75294" lon="7.05351">
        <ele>414</ele>
        <time>2016-07-31T12:57:59Z</time>
      </trkpt>
      <trkpt lat="47.75292" lon="7.0538">
        <ele>417</ele>
        <time>2016-07-31T12:58:15Z</time>
      </trkpt>
      <trkpt lat="47.75294" lon="7.05402">
        <ele>417</ele>
        <time>2016-07-31T12:58:27Z</time>
      </trkpt>
      <trkpt lat="47.75282" lon="7.05425">
        <ele>414</ele>
        <time>2016-07-31T12:58:43Z</time>
      </trkpt>
      <trkpt lat="47.75278" lon="7.05449">
        <ele>414</ele>
        <time>2016-07-31T12:58:58Z</time>
      </trkpt>
      <trkpt lat="47.75278" lon="7.0547">
        <ele>412</ele>
        <time>2016-07-31T12:59:11Z</time>
      </trkpt>
      <trkpt lat="47.75278" lon="7.05493">
        <ele>412</ele>
        <time>2016-07-31T12:59:25Z</time>
      </trkpt>
      <trkpt lat="47.75278" lon="7.05526">
        <ele>414</ele>
        <time>2016-07-31T12:59:43Z</time>
      </trkpt>
      <trkpt lat="47.75275" lon="7.05544">
        <ele>412</ele>
        <time>2016-07-31T12:59:54Z</time>
      </trkpt>
      <trkpt lat="47.75273" lon="7.05564">
        <ele>412</ele>
        <time>2016-07-31T13:00:07Z</time>
      </trkpt>
      <trkpt lat="47.75268" lon="7.05585">
        <ele>410</ele>
        <time>2016-07-31T13:00:21Z</time>
      </trkpt>
      <trkpt lat="47.75262" lon="7.05611">
        <ele>407</ele>
        <time>2016-07-31T13:00:39Z</time>
      </trkpt>
      <trkpt lat="47.7526" lon="7.05637">
        <ele>408</ele>
        <time>2016-07-31T13:00:55Z</time>
      </trkpt>
      <trkpt lat="47.75256" lon="7.05657">
        <ele>407</ele>
        <time>2016-07-31T13:01:07Z</time>
      </trkpt>
      <trkpt lat="47.75253" lon="7.05691">
        <ele>414</ele>
        <time>2016-07-31T13:01:20Z</time>
      </trkpt>
      <trkpt lat="47.75248" lon="7.05719">
        <ele>414</ele>
        <time>2016-07-31T13:01:36Z</time>
      </trkpt>
      <trkpt lat="47.75243" lon="7.05747">
        <ele>415</ele>
        <time>2016-07-31T13:01:52Z</time>
      </trkpt>
      <trkpt lat="47.7524" lon="7.05771">
        <ele>413</ele>
        <time>2016-07-31T13:02:07Z</time>
      </trkpt>
      <trkpt lat="47.75236" lon="7.05796">
        <ele>414</ele>
        <time>2016-07-31T13:02:21Z</time>
      </trkpt>
      <trkpt lat="47.75232" lon="7.05825">
        <ele>414</ele>
        <time>2016-07-31T13:02:39Z</time>
      </trkpt>
      <trkpt lat="47.75229" lon="7.05846">
        <ele>409</ele>
        <time>2016-07-31T13:02:58Z</time>
      </trkpt>
      <trkpt lat="47.75227" lon="7.05868">
        <ele>406</ele>
        <time>2016-07-31T13:03:13Z</time>
      </trkpt>
      <trkpt lat="47.75221" lon="7.05892">
        <ele>405</ele>
        <time>2016-07-31T13:03:28Z</time>
      </trkpt>
      <trkpt lat="47.75217" lon="7.05928">
        <ele>411</ele>
        <time>2016-07-31T13:03:43Z</time>
      </trkpt>
      <trkpt lat="47.75215" lon="7.05955">
        <ele>414</ele>
        <time>2016-07-31T13:03:57Z</time>
      </trkpt>
      <trkpt lat="47.75213" lon="7.05978">
        <ele>414</ele>
        <time>2016-07-31T13:04:12Z</time>
      </trkpt>
      <trkpt lat="47.75209" lon="7.06003">
        <ele>414</ele>
        <time>2016-07-31T13:04:26Z</time>
      </trkpt>
      <trkpt lat="47.75208" lon="7.06021">
        <ele>414</ele>
        <time>2016-07-31T13:04:36Z</time>
      </trkpt>
      <trkpt lat="47.75205" lon="7.06041">
        <ele>412</ele>
        <time>2016-07-31T13:04:49Z</time>
      </trkpt>
      <trkpt lat="47.75202" lon="7.06061">
        <ele>413</ele>
        <time>2016-07-31T13:05:00Z</time>
      </trkpt>
      <trkpt lat="47.75198" lon="7.06082">
        <ele>412</ele>
        <time>2016-07-31T13:05:14Z</time>
      </trkpt>
      <trkpt lat="47.75196" lon="7.06099">
        <ele>412</ele>
        <time>2016-07-31T13:05:24Z</time>
      </trkpt>
      <trkpt lat="47.75194" lon="7.06127">
        <ele>412</ele>
        <time>2016-07-31T13:05:41Z</time>
      </trkpt>
      <trkpt lat="47.75194" lon="7.06149">
        <ele>412</ele>
        <time>2016-07-31T13:05:54Z</time>
      </trkpt>
      <trkpt lat="47.75192" lon="7.06181">
        <ele>411</ele>
        <time>2016-07-31T13:06:11Z</time>
      </trkpt>
      <trkpt lat="47.75191" lon="7.06204">
        <ele>411</ele>
        <time>2016-07-31T13:06:25Z</time>
      </trkpt>
      <trkpt lat="47.75192" lon="7.06235">
        <ele>411</ele>
        <time>2016-07-31T13:06:42Z</time>
      </trkpt>
      <trkpt lat="47.75192" lon="7.06264">
        <ele>410</ele>
        <time>2016-07-31T13:06:58Z</time>
      </trkpt>
      <trkpt lat="47.75191" lon="7.06284">
        <ele>409</ele>
        <time>2016-07-31T13:07:10Z</time>
      </trkpt>
      <trkpt lat="47.75191" lon="7.06307">
        <ele>408</ele>
        <time>2016-07-31T13:07:24Z</time>
      </trkpt>
      <trkpt lat="47.75191" lon="7.06334">
        <ele>409</ele>
        <time>2016-07-31T13:07:39Z</time>
      </trkpt>
      <trkpt lat="47.7519" lon="7.06348">
        <ele>407</ele>
        <time>2016-07-31T13:07:48Z</time>
      </trkpt>
      <trkpt lat="47.7519" lon="7.06379">
        <ele>406</ele>
        <time>2016-07-31T13:08:06Z</time>
      </trkpt>
      <trkpt lat="47.7519" lon="7.064">
        <ele>405</ele>
        <time>2016-07-31T13:08:18Z</time>
      </trkpt>
      <trkpt lat="47.75188" lon="7.06423">
        <ele>406</ele>
        <time>2016-07-31T13:08:30Z</time>
      </trkpt>
      <trkpt lat="47.75189" lon="7.06434">
        <ele>404</ele>
        <time>2016-07-31T13:08:38Z</time>
      </trkpt>
      <trkpt lat="47.75187" lon="7.06467">
        <ele>403</ele>
        <time>2016-07-31T13:08:56Z</time>
      </trkpt>
      <trkpt lat="47.75186" lon="7.06496">
        <ele>404</ele>
        <time>2016-07-31T13:09:11Z</time>
      </trkpt>
      <trkpt lat="47.75185" lon="7.06522">
        <ele>403</ele>
        <time>2016-07-31T13:09:26Z</time>
      </trkpt>
      <trkpt lat="47.75184" lon="7.06554">
        <ele>405</ele>
        <time>2016-07-31T13:09:42Z</time>
      </trkpt>
      <trkpt lat="47.75185" lon="7.06566">
        <ele>404</ele>
        <time>2016-07-31T13:09:50Z</time>
      </trkpt>
      <trkpt lat="47.75186" lon="7.06585">
        <ele>403</ele>
        <time>2016-07-31T13:10:01Z</time>
      </trkpt>
      <trkpt lat="47.75186" lon="7.06614">
        <ele>401</ele>
        <time>2016-07-31T13:10:17Z</time>
      </trkpt>
      <trkpt lat="47.75185" lon="7.0664">
        <ele>403</ele>
        <time>2016-07-31T13:10:30Z</time>
      </trkpt>
      <trkpt lat="47.75184" lon="7.06656">
        <ele>403</ele>
        <time>2016-07-31T13:10:39Z</time>
      </trkpt>
      <trkpt lat="47.75184" lon="7.06686">
        <ele>402</ele>
        <time>2016-07-31T13:10:56Z</time>
      </trkpt>
      <trkpt lat="47.75183" lon="7.06705">
        <ele>402</ele>
        <time>2016-07-31T13:11:08Z</time>
      </trkpt>
      <trkpt lat="47.75182" lon="7.06736">
        <ele>403</ele>
        <time>2016-07-31T13:11:23Z</time>
      </trkpt>
      <trkpt lat="47.75181" lon="7.06752">
        <ele>404</ele>
        <time>2016-07-31T13:11:31Z</time>
      </trkpt>
      <trkpt lat="47.75182" lon="7.06781">
        <ele>404</ele>
        <time>2016-07-31T13:11:47Z</time>
      </trkpt>
      <trkpt lat="47.75178" lon="7.06816">
        <ele>406</ele>
        <time>2016-07-31T13:12:03Z</time>
      </trkpt>
      <trkpt lat="47.75178" lon="7.06835">
        <ele>407</ele>
        <time>2016-07-31T13:12:15Z</time>
      </trkpt>
      <trkpt lat="47.75178" lon="7.06861">
        <ele>404</ele>
        <time>2016-07-31T13:12:31Z</time>
      </trkpt>
      <trkpt lat="47.75179" lon="7.06885">
        <ele>404</ele>
        <time>2016-07-31T13:12:45Z</time>
      </trkpt>
      <trkpt lat="47.7518" lon="7.06914">
        <ele>402</ele>
        <time>2016-07-31T13:13:02Z</time>
      </trkpt>
      <trkpt lat="47.75178" lon="7.06942">
        <ele>403</ele>
        <time>2016-07-31T13:13:17Z</time>
      </trkpt>
      <trkpt lat="47.75177" lon="7.06963">
        <ele>402</ele>
        <time>2016-07-31T13:13:29Z</time>
      </trkpt>
      <trkpt lat="47.75177" lon="7.06977">
        <ele>403</ele>
        <time>2016-07-31T13:13:35Z</time>
      </trkpt>
      <trkpt lat="47.75176" lon="7.06999">
        <ele>404</ele>
        <time>2016-07-31T13:13:49Z</time>
      </trkpt>
      <trkpt lat="47.75176" lon="7.07025">
        <ele>404</ele>
        <time>2016-07-31T13:14:05Z</time>
      </trkpt>
      <trkpt lat="47.75176" lon="7.07038">
        <ele>405</ele>
        <time>2016-07-31T13:14:12Z</time>
      </trkpt>
      <trkpt lat="47.75174" lon="7.07063">
        <ele>405</ele>
        <time>2016-07-31T13:14:24Z</time>
      </trkpt>
      <trkpt lat="47.75173" lon="7.07084">
        <ele>407</ele>
        <time>2016-07-31T13:14:34Z</time>
      </trkpt>
      <trkpt lat="47.75173" lon="7.07112">
        <ele>406</ele>
        <time>2016-07-31T13:14:50Z</time>
      </trkpt>
      <trkpt lat="47.75173" lon="7.0714">
        <ele>406</ele>
        <time>2016-07-31T13:15:07Z</time>
      </trkpt>
      <trkpt lat="47.75174" lon="7.07161">
        <ele>405</ele>
        <time>2016-07-31T13:15:19Z</time>
      </trkpt>
      <trkpt lat="47.75174" lon="7.07184">
        <ele>405</ele>
        <time>2016-07-31T13:15:32Z</time>
      </trkpt>
      <trkpt lat="47.75174" lon="7.07206">
        <ele>404</ele>
        <time>2016-07-31T13:15:45Z</time>
      </trkpt>
      <trkpt lat="47.75172" lon="7.07234">
        <ele>403</ele>
        <time>2016-07-31T13:16:01Z</time>
      </trkpt>
      <trkpt lat="47.75172" lon="7.07253">
        <ele>403</ele>
        <time>2016-07-31T13:16:11Z</time>
      </trkpt>
      <trkpt lat="47.75173" lon="7.07275">
        <ele>403</ele>
        <time>2016-07-31T13:16:24Z</time>
      </trkpt>
      <trkpt lat="47.75171" lon="7.07308">
        <ele>403</ele>
        <time>2016-07-31T13:16:42Z</time>
      </trkpt>
      <trkpt lat="47.75169" lon="7.07331">
        <ele>403</ele>
        <time>2016-07-31T13:16:56Z</time>
      </trkpt>
      <trkpt lat="47.75169" lon="7.07366">
        <ele>404</ele>
        <time>2016-07-31T13:17:13Z</time>
      </trkpt>
      <trkpt lat="47.75168" lon="7.07378">
        <ele>403</ele>
        <time>2016-07-31T13:17:22Z</time>
      </trkpt>
      <trkpt lat="47.75168" lon="7.07399">
        <ele>402</ele>
        <time>2016-07-31T13:17:35Z</time>
      </trkpt>
      <trkpt lat="47.75167" lon="7.07428">
        <ele>400</ele>
        <time>2016-07-31T13:17:49Z</time>
      </trkpt>
      <trkpt lat="47.75167" lon="7.07455">
        <ele>400</ele>
        <time>2016-07-31T13:18:03Z</time>
      </trkpt>
      <trkpt lat="47.75165" lon="7.07485">
        <ele>400</ele>
        <time>2016-07-31T13:18:20Z</time>
      </trkpt>
      <trkpt lat="47.75164" lon="7.07509">
        <ele>400</ele>
        <time>2016-07-31T13:18:32Z</time>
      </trkpt>
      <trkpt lat="47.75163" lon="7.07529">
        <ele>398</ele>
        <time>2016-07-31T13:18:43Z</time>
      </trkpt>
      <trkpt lat="47.7516" lon="7.07555">
        <ele>398</ele>
        <time>2016-07-31T13:18:58Z</time>
      </trkpt>
      <trkpt lat="47.7516" lon="7.07571">
        <ele>398</ele>
        <time>2016-07-31T13:19:07Z</time>
      </trkpt>
      <trkpt lat="47.75158" lon="7.07587">
        <ele>398</ele>
        <time>2016-07-31T13:19:15Z</time>
      </trkpt>
      <trkpt lat="47.75157" lon="7.07603">
        <ele>401</ele>
        <time>2016-07-31T13:19:24Z</time>
      </trkpt>
      <trkpt lat="47.75154" lon="7.07629">
        <ele>404</ele>
        <time>2016-07-31T13:19:39Z</time>
      </trkpt>
      <trkpt lat="47.75153" lon="7.07652">
        <ele>405</ele>
        <time>2016-07-31T13:19:52Z</time>
      </trkpt>
      <trkpt lat="47.75151" lon="7.07683">
        <ele>403</ele>
        <time>2016-07-31T13:20:08Z</time>
      </trkpt>
      <trkpt lat="47.75149" lon="7.07707">
        <ele>401</ele>
        <time>2016-07-31T13:20:22Z</time>
      </trkpt>
      <trkpt lat="47.75146" lon="7.07727">
        <ele>401</ele>
        <time>2016-07-31T13:20:33Z</time>
      </trkpt>
      <trkpt lat="47.75144" lon="7.07747">
        <ele>401</ele>
        <time>2016-07-31T13:20:43Z</time>
      </trkpt>
      <trkpt lat="47.75141" lon="7.0777">
        <ele>401</ele>
        <time>2016-07-31T13:20:57Z</time>
      </trkpt>
      <trkpt lat="47.75138" lon="7.07795">
        <ele>399</ele>
        <time>2016-07-31T13:21:11Z</time>
      </trkpt>
      <trkpt lat="47.75135" lon="7.07814">
        <ele>400</ele>
        <time>2016-07-31T13:21:22Z</time>
      </trkpt>
      <trkpt lat="47.75132" lon="7.07839">
        <ele>399</ele>
        <time>2016-07-31T13:21:36Z</time>
      </trkpt>
      <trkpt lat="47.75128" lon="7.07865">
        <ele>398</ele>
        <time>2016-07-31T13:21:50Z</time>
      </trkpt>
      <trkpt lat="47.75126" lon="7.07881">
        <ele>398</ele>
        <time>2016-07-31T13:21:59Z</time>
      </trkpt>
      <trkpt lat="47.75127" lon="7.07882">
        <ele>397</ele>
        <time>2016-07-31T13:22:08Z</time>
      </trkpt>
      <trkpt lat="47.75119" lon="7.07921">
        <ele>397</ele>
        <time>2016-07-31T13:22:37Z</time>
      </trkpt>
      <trkpt lat="47.75116" lon="7.07945">
        <ele>397</ele>
        <time>2016-07-31T13:22:50Z</time>
      </trkpt>
      <trkpt lat="47.75113" lon="7.07959">
        <ele>398</ele>
        <time>2016-07-31T13:22:59Z</time>
      </trkpt>
      <trkpt lat="47.75108" lon="7.07987">
        <ele>398</ele>
        <time>2016-07-31T13:23:13Z</time>
      </trkpt>
      <trkpt lat="47.751" lon="7.08017">
        <ele>396</ele>
        <time>2016-07-31T13:23:32Z</time>
      </trkpt>
      <trkpt lat="47.75093" lon="7.08051">
        <ele>401</ele>
        <time>2016-07-31T13:23:46Z</time>
      </trkpt>
      <trkpt lat="47.75089" lon="7.08069">
        <ele>399</ele>
        <time>2016-07-31T13:23:57Z</time>
      </trkpt>
      <trkpt lat="47.75085" lon="7.08094">
        <ele>400</ele>
        <time>2016-07-31T13:24:08Z</time>
      </trkpt>
      <trkpt lat="47.75084" lon="7.081">
        <ele>402</ele>
        <time>2016-07-31T13:24:12Z</time>
      </trkpt>
      <trkpt lat="47.75079" lon="7.08114">
        <ele>399</ele>
        <time>2016-07-31T13:24:23Z</time>
      </trkpt>
      <trkpt lat="47.75077" lon="7.08139">
        <ele>399</ele>
        <time>2016-07-31T13:24:37Z</time>
      </trkpt>
      <trkpt lat="47.75071" lon="7.08166">
        <ele>398</ele>
        <time>2016-07-31T13:24:54Z</time>
      </trkpt>
      <trkpt lat="47.75066" lon="7.08186">
        <ele>397</ele>
        <time>2016-07-31T13:25:07Z</time>
      </trkpt>
      <trkpt lat="47.75063" lon="7.08209">
        <ele>399</ele>
        <time>2016-07-31T13:25:18Z</time>
      </trkpt>
      <trkpt lat="47.75057" lon="7.0823">
        <ele>397</ele>
        <time>2016-07-31T13:25:30Z</time>
      </trkpt>
      <trkpt lat="47.75049" lon="7.0826">
        <ele>395</ele>
        <time>2016-07-31T13:25:49Z</time>
      </trkpt>
      <trkpt lat="47.75045" lon="7.08291">
        <ele>398</ele>
        <time>2016-07-31T13:26:04Z</time>
      </trkpt>
      <trkpt lat="47.75042" lon="7.08306">
        <ele>398</ele>
        <time>2016-07-31T13:26:12Z</time>
      </trkpt>
      <trkpt lat="47.75035" lon="7.08332">
        <ele>396</ele>
        <time>2016-07-31T13:26:27Z</time>
      </trkpt>
      <trkpt lat="47.75031" lon="7.08349">
        <ele>396</ele>
        <time>2016-07-31T13:26:38Z</time>
      </trkpt>
      <trkpt lat="47.75025" lon="7.08386">
        <ele>398</ele>
        <time>2016-07-31T13:26:56Z</time>
      </trkpt>
      <trkpt lat="47.7502" lon="7.08404">
        <ele>397</ele>
        <time>2016-07-31T13:27:08Z</time>
      </trkpt>
      <trkpt lat="47.75016" lon="7.08424">
        <ele>396</ele>
        <time>2016-07-31T13:27:20Z</time>
      </trkpt>
      <trkpt lat="47.75012" lon="7.08448">
        <ele>397</ele>
        <time>2016-07-31T13:27:34Z</time>
      </trkpt>
      <trkpt lat="47.75007" lon="7.08474">
        <ele>397</ele>
        <time>2016-07-31T13:27:48Z</time>
      </trkpt>
      <trkpt lat="47.75002" lon="7.08498">
        <ele>396</ele>
        <time>2016-07-31T13:28:03Z</time>
      </trkpt>
      <trkpt lat="47.74996" lon="7.08523">
        <ele>398</ele>
        <time>2016-07-31T13:28:17Z</time>
      </trkpt>
      <trkpt lat="47.74988" lon="7.08548">
        <ele>394</ele>
        <time>2016-07-31T13:28:35Z</time>
      </trkpt>
      <trkpt lat="47.74983" lon="7.08564">
        <ele>390</ele>
        <time>2016-07-31T13:28:48Z</time>
      </trkpt>
      <trkpt lat="47.74979" lon="7.08609">
        <ele>396</ele>
        <time>2016-07-31T13:29:05Z</time>
      </trkpt>
      <trkpt lat="47.74974" lon="7.08635">
        <ele>396</ele>
        <time>2016-07-31T13:29:19Z</time>
      </trkpt>
      <trkpt lat="47.74971" lon="7.08648">
        <ele>396</ele>
        <time>2016-07-31T13:29:26Z</time>
      </trkpt>
      <trkpt lat="47.74967" lon="7.08662">
        <ele>394</ele>
        <time>2016-07-31T13:29:35Z</time>
      </trkpt>
      <trkpt lat="47.74961" lon="7.08687">
        <ele>389</ele>
        <time>2016-07-31T13:29:52Z</time>
      </trkpt>
      <trkpt lat="47.74954" lon="7.08722">
        <ele>389</ele>
        <time>2016-07-31T13:30:09Z</time>
      </trkpt>
      <trkpt lat="47.7495" lon="7.08742">
        <ele>390</ele>
        <time>2016-07-31T13:30:20Z</time>
      </trkpt>
      <trkpt lat="47.74946" lon="7.08767">
        <ele>391</ele>
        <time>2016-07-31T13:30:32Z</time>
      </trkpt>
      <trkpt lat="47.74938" lon="7.08793">
        <ele>388</ele>
        <time>2016-07-31T13:30:48Z</time>
      </trkpt>
      <trkpt lat="47.74933" lon="7.08819">
        <ele>386</ele>
        <time>2016-07-31T13:31:02Z</time>
      </trkpt>
      <trkpt lat="47.74928" lon="7.08843">
        <ele>386</ele>
        <time>2016-07-31T13:31:15Z</time>
      </trkpt>
      <trkpt lat="47.74924" lon="7.08866">
        <ele>385</ele>
        <time>2016-07-31T13:31:27Z</time>
      </trkpt>
      <trkpt lat="47.74921" lon="7.0888">
        <ele>388</ele>
        <time>2016-07-31T13:31:34Z</time>
      </trkpt>
      <trkpt lat="47.74919" lon="7.08891">
        <ele>388</ele>
        <time>2016-07-31T13:31:41Z</time>
      </trkpt>
      <trkpt lat="47.74914" lon="7.08916">
        <ele>386</ele>
        <time>2016-07-31T13:31:56Z</time>
      </trkpt>
      <trkpt lat="47.74908" lon="7.08942">
        <ele>386</ele>
        <time>2016-07-31T13:32:10Z</time>
      </trkpt>
      <trkpt lat="47.74904" lon="7.08963">
        <ele>386</ele>
        <time>2016-07-31T13:32:22Z</time>
      </trkpt>
      <trkpt lat="47.74899" lon="7.08989">
        <ele>387</ele>
        <time>2016-07-31T13:32:37Z</time>
      </trkpt>
      <trkpt lat="47.74895" lon="7.09009">
        <ele>388</ele>
        <time>2016-07-31T13:32:50Z</time>
      </trkpt>
      <trkpt lat="47.74891" lon="7.09027">
        <ele>387</ele>
        <time>2016-07-31T13:33:02Z</time>
      </trkpt>
      <trkpt lat="47.74886" lon="7.09046">
        <ele>386</ele>
        <time>2016-07-31T13:33:11Z</time>
      </trkpt>
      <trkpt lat="47.74881" lon="7.09073">
        <ele>386</ele>
        <time>2016-07-31T13:33:25Z</time>
      </trkpt>
      <trkpt lat="47.74873" lon="7.09104">
        <ele>388</ele>
        <time>2016-07-31T13:33:40Z</time>
      </trkpt>
      <trkpt lat="47.74867" lon="7.09127">
        <ele>388</ele>
        <time>2016-07-31T13:33:54Z</time>
      </trkpt>
      <trkpt lat="47.74857" lon="7.09153">
        <ele>389</ele>
        <time>2016-07-31T13:34:12Z</time>
      </trkpt>
      <trkpt lat="47.74851" lon="7.09183">
        <ele>389</ele>
        <time>2016-07-31T13:34:29Z</time>
      </trkpt>
      <trkpt lat="47.74846" lon="7.09217">
        <ele>389</ele>
        <time>2016-07-31T13:34:49Z</time>
      </trkpt>
      <trkpt lat="47.74842" lon="7.09245">
        <ele>388</ele>
        <time>2016-07-31T13:35:04Z</time>
      </trkpt>
      <trkpt lat="47.74837" lon="7.09274">
        <ele>386</ele>
        <time>2016-07-31T13:35:22Z</time>
      </trkpt>
      <trkpt lat="47.74832" lon="7.09302">
        <ele>388</ele>
        <time>2016-07-31T13:35:38Z</time>
      </trkpt>
      <trkpt lat="47.74828" lon="7.09322">
        <ele>388</ele>
        <time>2016-07-31T13:35:49Z</time>
      </trkpt>
      <trkpt lat="47.74823" lon="7.09354">
        <ele>386</ele>
        <time>2016-07-31T13:36:08Z</time>
      </trkpt>
      <trkpt lat="47.74817" lon="7.0938">
        <ele>385</ele>
        <time>2016-07-31T13:36:23Z</time>
      </trkpt>
      <trkpt lat="47.74813" lon="7.09397">
        <ele>383</ele>
        <time>2016-07-31T13:36:33Z</time>
      </trkpt>
      <trkpt lat="47.74807" lon="7.09429">
        <ele>384</ele>
        <time>2016-07-31T13:36:51Z</time>
      </trkpt>
      <trkpt lat="47.74802" lon="7.09452">
        <ele>384</ele>
        <time>2016-07-31T13:37:06Z</time>
      </trkpt>
      <trkpt lat="47.74795" lon="7.09485">
        <ele>383</ele>
        <time>2016-07-31T13:37:25Z</time>
      </trkpt>
      <trkpt lat="47.74789" lon="7.09515">
        <ele>382</ele>
        <time>2016-07-31T13:37:41Z</time>
      </trkpt>
      <trkpt lat="47.74784" lon="7.09539">
        <ele>382</ele>
        <time>2016-07-31T13:37:54Z</time>
      </trkpt>
      <trkpt lat="47.74777" lon="7.0957">
        <ele>384</ele>
        <time>2016-07-31T13:38:11Z</time>
      </trkpt>
      <trkpt lat="47.7477" lon="7.09598">
        <ele>385</ele>
        <time>2016-07-31T13:38:26Z</time>
      </trkpt>
      <trkpt lat="47.74767" lon="7.09615">
        <ele>384</ele>
        <time>2016-07-31T13:38:36Z</time>
      </trkpt>
      <trkpt lat="47.74763" lon="7.09642">
        <ele>384</ele>
        <time>2016-07-31T13:38:53Z</time>
      </trkpt>
      <trkpt lat="47.74757" lon="7.09668">
        <ele>383</ele>
        <time>2016-07-31T13:39:09Z</time>
      </trkpt>
      <trkpt lat="47.74752" lon="7.09689">
        <ele>381</ele>
        <time>2016-07-31T13:39:23Z</time>
      </trkpt>
      <trkpt lat="47.74747" lon="7.09714">
        <ele>380</ele>
        <time>2016-07-31T13:39:39Z</time>
      </trkpt>
      <trkpt lat="47.74743" lon="7.09733">
        <ele>380</ele>
        <time>2016-07-31T13:39:50Z</time>
      </trkpt>
      <trkpt lat="47.74737" lon="7.0976">
        <ele>379</ele>
        <time>2016-07-31T13:40:06Z</time>
      </trkpt>
      <trkpt lat="47.74734" lon="7.09773">
        <ele>380</ele>
        <time>2016-07-31T13:40:14Z</time>
      </trkpt>
      <trkpt lat="47.74728" lon="7.098">
        <ele>381</ele>
        <time>2016-07-31T13:40:32Z</time>
      </trkpt>
      <trkpt lat="47.74728" lon="7.098">
        <ele>381</ele>
        <time>2016-07-31T13:40:40Z</time>
      </trkpt>
      <trkpt lat="47.74728" lon="7.098">
        <ele>381</ele>
        <time>2016-07-31T13:40:41Z</time>
      </trkpt>
      <trkpt lat="47.74724" lon="7.09823">
        <ele>380</ele>
        <time>2016-07-31T13:41:09Z</time>
      </trkpt>
      <trkpt lat="47.74716" lon="7.09863">
        <ele>379</ele>
        <time>2016-07-31T13:41:44Z</time>
      </trkpt>
      <trkpt lat="47.74711" lon="7.09884">
        <ele>380</ele>
        <time>2016-07-31T13:42:02Z</time>
      </trkpt>
      <trkpt lat="47.7471" lon="7.09889">
        <ele>380</ele>
        <time>2016-07-31T13:42:05Z</time>
      </trkpt>
      <trkpt lat="47.74711" lon="7.09884">
        <ele>380</ele>
        <time>2016-07-31T13:42:14Z</time>
      </trkpt>
      <trkpt lat="47.747" lon="7.0992">
        <ele>376</ele>
        <time>2016-07-31T14:03:42Z</time>
      </trkpt>
      <trkpt lat="47.747" lon="7.0992">
        <ele>376</ele>
        <time>2016-07-31T14:03:49Z</time>
      </trkpt>
      <trkpt lat="47.74698" lon="7.09938">
        <ele>379</ele>
        <time>2016-07-31T14:04:02Z</time>
      </trkpt>
      <trkpt lat="47.74687" lon="7.0998">
        <ele>377</ele>
        <time>2016-07-31T14:04:53Z</time>
      </trkpt>
      <trkpt lat="47.74683" lon="7.10021">
        <ele>379</ele>
        <time>2016-07-31T14:05:49Z</time>
      </trkpt>
      <trkpt lat="47.74693" lon="7.09983">
        <ele>379</ele>
        <time>2016-07-31T14:08:57Z</time>
      </trkpt>
      <trkpt lat="47.74698" lon="7.09943">
        <ele>377</ele>
        <time>2016-07-31T14:10:33Z</time>
      </trkpt>
      <trkpt lat="47.74698" lon="7.09943">
        <ele>377</ele>
        <time>2016-07-31T14:19:52Z</time>
      </trkpt>
      <trkpt lat="47.74702" lon="7.0992">
        <ele>378</ele>
        <time>2016-07-31T14:20:03Z</time>
      </trkpt>
      <trkpt lat="47.74705" lon="7.09902">
        <ele>378</ele>
        <time>2016-07-31T14:20:15Z</time>
      </trkpt>
      <trkpt lat="47.7471" lon="7.09875">
        <ele>377</ele>
        <time>2016-07-31T14:20:34Z</time>
      </trkpt>
      <trkpt lat="47.74716" lon="7.09851">
        <ele>375</ele>
        <time>2016-07-31T14:20:54Z</time>
      </trkpt>
      <trkpt lat="47.7472" lon="7.09836">
        <ele>378</ele>
        <time>2016-07-31T14:21:04Z</time>
      </trkpt>
      <trkpt lat="47.74724" lon="7.09812">
        <ele>381</ele>
        <time>2016-07-31T14:21:18Z</time>
      </trkpt>
      <trkpt lat="47.74724" lon="7.09798">
        <ele>382</ele>
        <time>2016-07-31T14:21:25Z</time>
      </trkpt>
      <trkpt lat="47.7473" lon="7.09789">
        <ele>380</ele>
        <time>2016-07-31T14:21:38Z</time>
      </trkpt>
      <trkpt lat="47.7473" lon="7.09789">
        <ele>380</ele>
        <time>2016-07-31T14:21:45Z</time>
      </trkpt>
      <trkpt lat="47.7473" lon="7.09789">
        <ele>380</ele>
        <time>2016-07-31T14:21:46Z</time>
      </trkpt>
      <trkpt lat="47.74733" lon="7.09768">
        <ele>376</ele>
        <time>2016-07-31T14:22:16Z</time>
      </trkpt>
      <trkpt lat="47.74738" lon="7.09745">
        <ele>377</ele>
        <time>2016-07-31T14:22:32Z</time>
      </trkpt>
      <trkpt lat="47.74743" lon="7.09724">
        <ele>376</ele>
        <time>2016-07-31T14:22:47Z</time>
      </trkpt>
      <trkpt lat="47.74748" lon="7.09691">
        <ele>377</ele>
        <time>2016-07-31T14:23:06Z</time>
      </trkpt>
      <trkpt lat="47.74754" lon="7.09663">
        <ele>379</ele>
        <time>2016-07-31T14:23:24Z</time>
      </trkpt>
      <trkpt lat="47.74762" lon="7.09643">
        <ele>378</ele>
        <time>2016-07-31T14:23:42Z</time>
      </trkpt>
      <trkpt lat="47.74761" lon="7.09626">
        <ele>376</ele>
        <time>2016-07-31T14:23:53Z</time>
      </trkpt>
      <trkpt lat="47.74768" lon="7.09596">
        <ele>377</ele>
        <time>2016-07-31T14:24:11Z</time>
      </trkpt>
      <trkpt lat="47.74776" lon="7.09577">
        <ele>380</ele>
        <time>2016-07-31T14:24:24Z</time>
      </trkpt>
      <trkpt lat="47.74779" lon="7.09548">
        <ele>377</ele>
        <time>2016-07-31T14:24:43Z</time>
      </trkpt>
      <trkpt lat="47.74783" lon="7.09529">
        <ele>379</ele>
        <time>2016-07-31T14:24:54Z</time>
      </trkpt>
      <trkpt lat="47.74787" lon="7.09505">
        <ele>380</ele>
        <time>2016-07-31T14:25:09Z</time>
      </trkpt>
      <trkpt lat="47.74796" lon="7.09474">
        <ele>378</ele>
        <time>2016-07-31T14:25:29Z</time>
      </trkpt>
      <trkpt lat="47.748" lon="7.09447">
        <ele>380</ele>
        <time>2016-07-31T14:25:45Z</time>
      </trkpt>
      <trkpt lat="47.74808" lon="7.09424">
        <ele>379</ele>
        <time>2016-07-31T14:26:00Z</time>
      </trkpt>
      <trkpt lat="47.74811" lon="7.09396">
        <ele>379</ele>
        <time>2016-07-31T14:26:15Z</time>
      </trkpt>
      <trkpt lat="47.74818" lon="7.09372">
        <ele>380</ele>
        <time>2016-07-31T14:26:32Z</time>
      </trkpt>
      <trkpt lat="47.74824" lon="7.09338">
        <ele>381</ele>
        <time>2016-07-31T14:26:50Z</time>
      </trkpt>
      <trkpt lat="47.7483" lon="7.09308">
        <ele>382</ele>
        <time>2016-07-31T14:27:08Z</time>
      </trkpt>
      <trkpt lat="47.74836" lon="7.09279">
        <ele>381</ele>
        <time>2016-07-31T14:27:25Z</time>
      </trkpt>
      <trkpt lat="47.74841" lon="7.09243">
        <ele>382</ele>
        <time>2016-07-31T14:27:43Z</time>
      </trkpt>
      <trkpt lat="47.74843" lon="7.09229">
        <ele>384</ele>
        <time>2016-07-31T14:27:52Z</time>
      </trkpt>
      <trkpt lat="47.74847" lon="7.09203">
        <ele>383</ele>
        <time>2016-07-31T14:28:09Z</time>
      </trkpt>
      <trkpt lat="47.74852" lon="7.09173">
        <ele>383</ele>
        <time>2016-07-31T14:28:26Z</time>
      </trkpt>
      <trkpt lat="47.74859" lon="7.09145">
        <ele>382</ele>
        <time>2016-07-31T14:28:43Z</time>
      </trkpt>
      <trkpt lat="47.74869" lon="7.09116">
        <ele>383</ele>
        <time>2016-07-31T14:29:01Z</time>
      </trkpt>
      <trkpt lat="47.74872" lon="7.09101">
        <ele>384</ele>
        <time>2016-07-31T14:29:09Z</time>
      </trkpt>
      <trkpt lat="47.74879" lon="7.09073">
        <ele>383</ele>
        <time>2016-07-31T14:29:24Z</time>
      </trkpt>
      <trkpt lat="47.74883" lon="7.09055">
        <ele>382</ele>
        <time>2016-07-31T14:29:36Z</time>
      </trkpt>
      <trkpt lat="47.74886" lon="7.09031">
        <ele>382</ele>
        <time>2016-07-31T14:29:49Z</time>
      </trkpt>
      <trkpt lat="47.74894" lon="7.09011">
        <ele>382</ele>
        <time>2016-07-31T14:30:03Z</time>
      </trkpt>
      <trkpt lat="47.74903" lon="7.08982">
        <ele>387</ele>
        <time>2016-07-31T14:30:19Z</time>
      </trkpt>
      <trkpt lat="47.74907" lon="7.08965">
        <ele>388</ele>
        <time>2016-07-31T14:30:30Z</time>
      </trkpt>
      <trkpt lat="47.74908" lon="7.08949">
        <ele>387</ele>
        <time>2016-07-31T14:30:38Z</time>
      </trkpt>
      <trkpt lat="47.74912" lon="7.08926">
        <ele>387</ele>
        <time>2016-07-31T14:30:51Z</time>
      </trkpt>
      <trkpt lat="47.74917" lon="7.08899">
        <ele>387</ele>
        <time>2016-07-31T14:31:08Z</time>
      </trkpt>
      <trkpt lat="47.74922" lon="7.08871">
        <ele>386</ele>
        <time>2016-07-31T14:31:25Z</time>
      </trkpt>
      <trkpt lat="47.74924" lon="7.08848">
        <ele>383</ele>
        <time>2016-07-31T14:31:39Z</time>
      </trkpt>
      <trkpt lat="47.74928" lon="7.08816">
        <ele>382</ele>
        <time>2016-07-31T14:31:57Z</time>
      </trkpt>
      <trkpt lat="47.74933" lon="7.08787">
        <ele>381</ele>
        <time>2016-07-31T14:32:12Z</time>
      </trkpt>
      <trkpt lat="47.74933" lon="7.08781">
        <ele>381</ele>
        <time>2016-07-31T14:32:15Z</time>
      </trkpt>
      <trkpt lat="47.7494" lon="7.08771">
        <ele>382</ele>
        <time>2016-07-31T14:32:26Z</time>
      </trkpt>
      <trkpt lat="47.7494" lon="7.08771">
        <ele>382</ele>
        <time>2016-07-31T14:32:31Z</time>
      </trkpt>
      <trkpt lat="47.74943" lon="7.08753">
        <ele>382</ele>
        <time>2016-07-31T14:32:35Z</time>
      </trkpt>
      <trkpt lat="47.74944" lon="7.08734">
        <ele>381</ele>
        <time>2016-07-31T14:32:45Z</time>
      </trkpt>
      <trkpt lat="47.74948" lon="7.08714">
        <ele>381</ele>
        <time>2016-07-31T14:32:57Z</time>
      </trkpt>
      <trkpt lat="47.7496" lon="7.08684">
        <ele>385</ele>
        <time>2016-07-31T14:33:14Z</time>
      </trkpt>
      <trkpt lat="47.74965" lon="7.08664">
        <ele>384</ele>
        <time>2016-07-31T14:33:26Z</time>
      </trkpt>
      <trkpt lat="47.74971" lon="7.08643">
        <ele>385</ele>
        <time>2016-07-31T14:33:39Z</time>
      </trkpt>
      <trkpt lat="47.74974" lon="7.08622">
        <ele>383</ele>
        <time>2016-07-31T14:33:53Z</time>
      </trkpt>
      <trkpt lat="47.74975" lon="7.08597">
        <ele>381</ele>
        <time>2016-07-31T14:34:07Z</time>
      </trkpt>
      <trkpt lat="47.74984" lon="7.08566">
        <ele>383</ele>
        <time>2016-07-31T14:34:25Z</time>
      </trkpt>
      <trkpt lat="47.74987" lon="7.08541">
        <ele>383</ele>
        <time>2016-07-31T14:34:39Z</time>
      </trkpt>
      <trkpt lat="47.74989" lon="7.0851">
        <ele>382</ele>
        <time>2016-07-31T14:34:55Z</time>
      </trkpt>
      <trkpt lat="47.74991" lon="7.08493">
        <ele>381</ele>
        <time>2016-07-31T14:35:07Z</time>
      </trkpt>
      <trkpt lat="47.74997" lon="7.08475">
        <ele>382</ele>
        <time>2016-07-31T14:35:19Z</time>
      </trkpt>
      <trkpt lat="47.75003" lon="7.08452">
        <ele>382</ele>
        <time>2016-07-31T14:35:29Z</time>
      </trkpt>
      <trkpt lat="47.75011" lon="7.08427">
        <ele>390</ele>
        <time>2016-07-31T14:35:41Z</time>
      </trkpt>
      <trkpt lat="47.7502" lon="7.08402">
        <ele>391</ele>
        <time>2016-07-31T14:35:55Z</time>
      </trkpt>
      <trkpt lat="47.75023" lon="7.08397">
        <ele>392</ele>
        <time>2016-07-31T14:36:00Z</time>
      </trkpt>
      <trkpt lat="47.75023" lon="7.08387">
        <ele>390</ele>
        <time>2016-07-31T14:36:10Z</time>
      </trkpt>
      <trkpt lat="47.75028" lon="7.08359">
        <ele>390</ele>
        <time>2016-07-31T14:36:28Z</time>
      </trkpt>
      <trkpt lat="47.75034" lon="7.08342">
        <ele>391</ele>
        <time>2016-07-31T14:36:36Z</time>
      </trkpt>
      <trkpt lat="47.75037" lon="7.08322">
        <ele>390</ele>
        <time>2016-07-31T14:36:48Z</time>
      </trkpt>
      <trkpt lat="47.75045" lon="7.08302">
        <ele>396</ele>
        <time>2016-07-31T14:36:58Z</time>
      </trkpt>
      <trkpt lat="47.75053" lon="7.08276">
        <ele>397</ele>
        <time>2016-07-31T14:37:14Z</time>
      </trkpt>
      <trkpt lat="47.75052" lon="7.08251">
        <ele>390</ele>
        <time>2016-07-31T14:37:31Z</time>
      </trkpt>
      <trkpt lat="47.75052" lon="7.08229">
        <ele>390</ele>
        <time>2016-07-31T14:37:42Z</time>
      </trkpt>
      <trkpt lat="47.7506" lon="7.08194">
        <ele>393</ele>
        <time>2016-07-31T14:38:00Z</time>
      </trkpt>
      <trkpt lat="47.75064" lon="7.08168">
        <ele>388</ele>
        <time>2016-07-31T14:38:21Z</time>
      </trkpt>
      <trkpt lat="47.75067" lon="7.0815">
        <ele>389</ele>
        <time>2016-07-31T14:38:30Z</time>
      </trkpt>
      <trkpt lat="47.75071" lon="7.08136">
        <ele>389</ele>
        <time>2016-07-31T14:38:39Z</time>
      </trkpt>
      <trkpt lat="47.7508" lon="7.08105">
        <ele>391</ele>
        <time>2016-07-31T14:38:55Z</time>
      </trkpt>
      <trkpt lat="47.75082" lon="7.08091">
        <ele>391</ele>
        <time>2016-07-31T14:39:05Z</time>
      </trkpt>
      <trkpt lat="47.7509" lon="7.08068">
        <ele>393</ele>
        <time>2016-07-31T14:39:14Z</time>
      </trkpt>
      <trkpt lat="47.75092" lon="7.08054">
        <ele>392</ele>
        <time>2016-07-31T14:39:25Z</time>
      </trkpt>
      <trkpt lat="47.75097" lon="7.08033">
        <ele>394</ele>
        <time>2016-07-31T14:39:36Z</time>
      </trkpt>
      <trkpt lat="47.75104" lon="7.08003">
        <ele>398</ele>
        <time>2016-07-31T14:39:50Z</time>
      </trkpt>
      <trkpt lat="47.75106" lon="7.07988">
        <ele>398</ele>
        <time>2016-07-31T14:40:01Z</time>
      </trkpt>
      <trkpt lat="47.7511" lon="7.07967">
        <ele>399</ele>
        <time>2016-07-31T14:40:12Z</time>
      </trkpt>
      <trkpt lat="47.75114" lon="7.07944">
        <ele>401</ele>
        <time>2016-07-31T14:40:21Z</time>
      </trkpt>
      <trkpt lat="47.75118" lon="7.0792">
        <ele>401</ele>
        <time>2016-07-31T14:40:35Z</time>
      </trkpt>
      <trkpt lat="47.75118" lon="7.0792">
        <ele>401</ele>
        <time>2016-07-31T14:40:43Z</time>
      </trkpt>
      <trkpt lat="47.75118" lon="7.0792">
        <ele>401</ele>
        <time>2016-07-31T14:40:44Z</time>
      </trkpt>
      <trkpt lat="47.7512" lon="7.07895">
        <ele>393</ele>
        <time>2016-07-31T14:41:01Z</time>
      </trkpt>
      <trkpt lat="47.75123" lon="7.07874">
        <ele>395</ele>
        <time>2016-07-31T14:41:15Z</time>
      </trkpt>
      <trkpt lat="47.75128" lon="7.07851">
        <ele>396</ele>
        <time>2016-07-31T14:41:25Z</time>
      </trkpt>
      <trkpt lat="47.75136" lon="7.07808">
        <ele>402</ele>
        <time>2016-07-31T14:41:38Z</time>
      </trkpt>
      <trkpt lat="47.75136" lon="7.07804">
        <ele>403</ele>
        <time>2016-07-31T14:41:39Z</time>
      </trkpt>
      <trkpt lat="47.75136" lon="7.07808">
        <ele>402</ele>
        <time>2016-07-31T14:41:48Z</time>
      </trkpt>
      <trkpt lat="47.75138" lon="7.07792">
        <ele>399</ele>
        <time>2016-07-31T14:41:58Z</time>
      </trkpt>
      <trkpt lat="47.75142" lon="7.07762">
        <ele>397</ele>
        <time>2016-07-31T14:42:15Z</time>
      </trkpt>
      <trkpt lat="47.75147" lon="7.07729">
        <ele>401</ele>
        <time>2016-07-31T14:42:27Z</time>
      </trkpt>
      <trkpt lat="47.75149" lon="7.0772">
        <ele>395</ele>
        <time>2016-07-31T14:42:40Z</time>
      </trkpt>
      <trkpt lat="47.75152" lon="7.07683">
        <ele>397</ele>
        <time>2016-07-31T14:42:57Z</time>
      </trkpt>
      <trkpt lat="47.75155" lon="7.07669">
        <ele>396</ele>
        <time>2016-07-31T14:43:07Z</time>
      </trkpt>
      <trkpt lat="47.75157" lon="7.0764">
        <ele>397</ele>
        <time>2016-07-31T14:43:22Z</time>
      </trkpt>
      <trkpt lat="47.7516" lon="7.07627">
        <ele>395</ele>
        <time>2016-07-31T14:43:31Z</time>
      </trkpt>
      <trkpt lat="47.75161" lon="7.07589">
        <ele>400</ele>
        <time>2016-07-31T14:43:48Z</time>
      </trkpt>
      <trkpt lat="47.75164" lon="7.07562">
        <ele>401</ele>
        <time>2016-07-31T14:44:03Z</time>
      </trkpt>
      <trkpt lat="47.75163" lon="7.07532">
        <ele>401</ele>
        <time>2016-07-31T14:44:19Z</time>
      </trkpt>
      <trkpt lat="47.75164" lon="7.07513">
        <ele>402</ele>
        <time>2016-07-31T14:44:32Z</time>
      </trkpt>
      <trkpt lat="47.75166" lon="7.07491">
        <ele>401</ele>
        <time>2016-07-31T14:44:43Z</time>
      </trkpt>
      <trkpt lat="47.75175" lon="7.07468">
        <ele>402</ele>
        <time>2016-07-31T14:44:58Z</time>
      </trkpt>
      <trkpt lat="47.75169" lon="7.07441">
        <ele>404</ele>
        <time>2016-07-31T14:45:13Z</time>
      </trkpt>
      <trkpt lat="47.75169" lon="7.07413">
        <ele>398</ele>
        <time>2016-07-31T14:45:29Z</time>
      </trkpt>
      <trkpt lat="47.75171" lon="7.07383">
        <ele>401</ele>
        <time>2016-07-31T14:45:43Z</time>
      </trkpt>
      <trkpt lat="47.7517" lon="7.07358">
        <ele>403</ele>
        <time>2016-07-31T14:45:56Z</time>
      </trkpt>
      <trkpt lat="47.75172" lon="7.07321">
        <ele>403</ele>
        <time>2016-07-31T14:46:16Z</time>
      </trkpt>
      <trkpt lat="47.75175" lon="7.07299">
        <ele>402</ele>
        <time>2016-07-31T14:46:31Z</time>
      </trkpt>
      <trkpt lat="47.75173" lon="7.07264">
        <ele>404</ele>
        <time>2016-07-31T14:46:50Z</time>
      </trkpt>
      <trkpt lat="47.75174" lon="7.07229">
        <ele>405</ele>
        <time>2016-07-31T14:47:07Z</time>
      </trkpt>
      <trkpt lat="47.75176" lon="7.07201">
        <ele>405</ele>
        <time>2016-07-31T14:47:23Z</time>
      </trkpt>
      <trkpt lat="47.75177" lon="7.07172">
        <ele>404</ele>
        <time>2016-07-31T14:47:40Z</time>
      </trkpt>
      <trkpt lat="47.75176" lon="7.0714">
        <ele>406</ele>
        <time>2016-07-31T14:47:55Z</time>
      </trkpt>
      <trkpt lat="47.75176" lon="7.07119">
        <ele>404</ele>
        <time>2016-07-31T14:48:10Z</time>
      </trkpt>
      <trkpt lat="47.75176" lon="7.07087">
        <ele>403</ele>
        <time>2016-07-31T14:48:27Z</time>
      </trkpt>
      <trkpt lat="47.75177" lon="7.07065">
        <ele>403</ele>
        <time>2016-07-31T14:48:40Z</time>
      </trkpt>
      <trkpt lat="47.75178" lon="7.07027">
        <ele>405</ele>
        <time>2016-07-31T14:48:58Z</time>
      </trkpt>
      <trkpt lat="47.75178" lon="7.07027">
        <ele>405</ele>
        <time>2016-07-31T14:49:03Z</time>
      </trkpt>
      <trkpt lat="47.75179" lon="7.07013">
        <ele>404</ele>
        <time>2016-07-31T14:49:07Z</time>
      </trkpt>
      <trkpt lat="47.75178" lon="7.06996">
        <ele>405</ele>
        <time>2016-07-31T14:49:16Z</time>
      </trkpt>
      <trkpt lat="47.75179" lon="7.06973">
        <ele>405</ele>
        <time>2016-07-31T14:49:29Z</time>
      </trkpt>
      <trkpt lat="47.7518" lon="7.0695">
        <ele>406</ele>
        <time>2016-07-31T14:49:42Z</time>
      </trkpt>
      <trkpt lat="47.75179" lon="7.0692">
        <ele>408</ele>
        <time>2016-07-31T14:49:57Z</time>
      </trkpt>
      <trkpt lat="47.75178" lon="7.06916">
        <ele>407</ele>
        <time>2016-07-31T14:49:59Z</time>
      </trkpt>
      <trkpt lat="47.7518" lon="7.06903">
        <ele>404</ele>
        <time>2016-07-31T14:50:11Z</time>
      </trkpt>
      <trkpt lat="47.75181" lon="7.06875">
        <ele>404</ele>
        <time>2016-07-31T14:50:28Z</time>
      </trkpt>
      <trkpt lat="47.75181" lon="7.06854">
        <ele>403</ele>
        <time>2016-07-31T14:50:39Z</time>
      </trkpt>
      <trkpt lat="47.75183" lon="7.06829">
        <ele>406</ele>
        <time>2016-07-31T14:50:53Z</time>
      </trkpt>
      <trkpt lat="47.75183" lon="7.06798">
        <ele>410</ele>
        <time>2016-07-31T14:51:09Z</time>
      </trkpt>
      <trkpt lat="47.75183" lon="7.0678">
        <ele>407</ele>
        <time>2016-07-31T14:51:22Z</time>
      </trkpt>
      <trkpt lat="47.75185" lon="7.06751">
        <ele>404</ele>
        <time>2016-07-31T14:51:40Z</time>
      </trkpt>
      <trkpt lat="47.75182" lon="7.06719">
        <ele>407</ele>
        <time>2016-07-31T14:51:56Z</time>
      </trkpt>
      <trkpt lat="47.75181" lon="7.06698">
        <ele>406</ele>
        <time>2016-07-31T14:52:07Z</time>
      </trkpt>
      <trkpt lat="47.75181" lon="7.06667">
        <ele>404</ele>
        <time>2016-07-31T14:52:24Z</time>
      </trkpt>
      <trkpt lat="47.75182" lon="7.06636">
        <ele>406</ele>
        <time>2016-07-31T14:52:43Z</time>
      </trkpt>
      <trkpt lat="47.75184" lon="7.06606">
        <ele>405</ele>
        <time>2016-07-31T14:53:00Z</time>
      </trkpt>
      <trkpt lat="47.75185" lon="7.06583">
        <ele>405</ele>
        <time>2016-07-31T14:53:13Z</time>
      </trkpt>
      <trkpt lat="47.75185" lon="7.06567">
        <ele>405</ele>
        <time>2016-07-31T14:53:22Z</time>
      </trkpt>
      <trkpt lat="47.75184" lon="7.06537">
        <ele>405</ele>
        <time>2016-07-31T14:53:37Z</time>
      </trkpt>
      <trkpt lat="47.75184" lon="7.06518">
        <ele>407</ele>
        <time>2016-07-31T14:53:46Z</time>
      </trkpt>
      <trkpt lat="47.75185" lon="7.06498">
        <ele>408</ele>
        <time>2016-07-31T14:53:58Z</time>
      </trkpt>
      <trkpt lat="47.75185" lon="7.0648">
        <ele>409</ele>
        <time>2016-07-31T14:54:06Z</time>
      </trkpt>
      <trkpt lat="47.75185" lon="7.06468">
        <ele>408</ele>
        <time>2016-07-31T14:54:14Z</time>
      </trkpt>
      <trkpt lat="47.75187" lon="7.06438">
        <ele>407</ele>
        <time>2016-07-31T14:54:30Z</time>
      </trkpt>
      <trkpt lat="47.75187" lon="7.06417">
        <ele>408</ele>
        <time>2016-07-31T14:54:42Z</time>
      </trkpt>
      <trkpt lat="47.75188" lon="7.06394">
        <ele>408</ele>
        <time>2016-07-31T14:54:55Z</time>
      </trkpt>
      <trkpt lat="47.7519" lon="7.06376">
        <ele>409</ele>
        <time>2016-07-31T14:55:03Z</time>
      </trkpt>
      <trkpt lat="47.75189" lon="7.06351">
        <ele>411</ele>
        <time>2016-07-31T14:55:17Z</time>
      </trkpt>
      <trkpt lat="47.75189" lon="7.06327">
        <ele>409</ele>
        <time>2016-07-31T14:55:32Z</time>
      </trkpt>
      <trkpt lat="47.75189" lon="7.06298">
        <ele>411</ele>
        <time>2016-07-31T14:55:47Z</time>
      </trkpt>
      <trkpt lat="47.7519" lon="7.06273">
        <ele>411</ele>
        <time>2016-07-31T14:56:02Z</time>
      </trkpt>
      <trkpt lat="47.7519" lon="7.06255">
        <ele>412</ele>
        <time>2016-07-31T14:56:14Z</time>
      </trkpt>
      <trkpt lat="47.75193" lon="7.06229">
        <ele>410</ele>
        <time>2016-07-31T14:56:32Z</time>
      </trkpt>
      <trkpt lat="47.75194" lon="7.06209">
        <ele>410</ele>
        <time>2016-07-31T14:56:42Z</time>
      </trkpt>
      <trkpt lat="47.75196" lon="7.06195">
        <ele>407</ele>
        <time>2016-07-31T14:56:51Z</time>
      </trkpt>
      <trkpt lat="47.75195" lon="7.06167">
        <ele>408</ele>
        <time>2016-07-31T14:57:06Z</time>
      </trkpt>
      <trkpt lat="47.75194" lon="7.0616">
        <ele>409</ele>
        <time>2016-07-31T14:57:10Z</time>
      </trkpt>
      <trkpt lat="47.75193" lon="7.0615">
        <ele>410</ele>
        <time>2016-07-31T14:57:18Z</time>
      </trkpt>
      <trkpt lat="47.75194" lon="7.06123">
        <ele>411</ele>
        <time>2016-07-31T14:57:32Z</time>
      </trkpt>
      <trkpt lat="47.75198" lon="7.06103">
        <ele>411</ele>
        <time>2016-07-31T14:57:43Z</time>
      </trkpt>
      <trkpt lat="47.75201" lon="7.06073">
        <ele>411</ele>
        <time>2016-07-31T14:58:01Z</time>
      </trkpt>
      <trkpt lat="47.75204" lon="7.06057">
        <ele>410</ele>
        <time>2016-07-31T14:58:10Z</time>
      </trkpt>
      <trkpt lat="47.75206" lon="7.06032">
        <ele>413</ele>
        <time>2016-07-31T14:58:23Z</time>
      </trkpt>
      <trkpt lat="47.75211" lon="7.06005">
        <ele>415</ele>
        <time>2016-07-31T14:58:37Z</time>
      </trkpt>
      <trkpt lat="47.75215" lon="7.05993">
        <ele>412</ele>
        <time>2016-07-31T14:58:45Z</time>
      </trkpt>
      <trkpt lat="47.75218" lon="7.05963">
        <ele>413</ele>
        <time>2016-07-31T14:59:02Z</time>
      </trkpt>
      <trkpt lat="47.75218" lon="7.05942">
        <ele>415</ele>
        <time>2016-07-31T14:59:14Z</time>
      </trkpt>
      <trkpt lat="47.7522" lon="7.05917">
        <ele>418</ele>
        <time>2016-07-31T14:59:24Z</time>
      </trkpt>
      <trkpt lat="47.75224" lon="7.05902">
        <ele>419</ele>
        <time>2016-07-31T14:59:32Z</time>
      </trkpt>
      <trkpt lat="47.75225" lon="7.05876">
        <ele>420</ele>
        <time>2016-07-31T14:59:47Z</time>
      </trkpt>
      <trkpt lat="47.75229" lon="7.05853">
        <ele>419</ele>
        <time>2016-07-31T15:00:01Z</time>
      </trkpt>
      <trkpt lat="47.75234" lon="7.05829">
        <ele>417</ele>
        <time>2016-07-31T15:00:17Z</time>
      </trkpt>
      <trkpt lat="47.75241" lon="7.05801">
        <ele>416</ele>
        <time>2016-07-31T15:00:34Z</time>
      </trkpt>
      <trkpt lat="47.7524" lon="7.05779">
        <ele>414</ele>
        <time>2016-07-31T15:00:48Z</time>
      </trkpt>
      <trkpt lat="47.75251" lon="7.05744">
        <ele>416</ele>
        <time>2016-07-31T15:01:07Z</time>
      </trkpt>
      <trkpt lat="47.75255" lon="7.05722">
        <ele>417</ele>
        <time>2016-07-31T15:01:20Z</time>
      </trkpt>
      <trkpt lat="47.75256" lon="7.05706">
        <ele>415</ele>
        <time>2016-07-31T15:01:31Z</time>
      </trkpt>
      <trkpt lat="47.75261" lon="7.05674">
        <ele>415</ele>
        <time>2016-07-31T15:01:49Z</time>
      </trkpt>
      <trkpt lat="47.75265" lon="7.05644">
        <ele>416</ele>
        <time>2016-07-31T15:02:07Z</time>
      </trkpt>
      <trkpt lat="47.75265" lon="7.05604">
        <ele>414</ele>
        <time>2016-07-31T15:02:27Z</time>
      </trkpt>
      <trkpt lat="47.75269" lon="7.05577">
        <ele>412</ele>
        <time>2016-07-31T15:02:41Z</time>
      </trkpt>
      <trkpt lat="47.75272" lon="7.05556">
        <ele>413</ele>
        <time>2016-07-31T15:02:54Z</time>
      </trkpt>
      <trkpt lat="47.75276" lon="7.05531">
        <ele>410</ele>
        <time>2016-07-31T15:03:08Z</time>
      </trkpt>
      <trkpt lat="47.75283" lon="7.05505">
        <ele>412</ele>
        <time>2016-07-31T15:03:21Z</time>
      </trkpt>
      <trkpt lat="47.75282" lon="7.0547">
        <ele>410</ele>
        <time>2016-07-31T15:03:39Z</time>
      </trkpt>
      <trkpt lat="47.75282" lon="7.0545">
        <ele>411</ele>
        <time>2016-07-31T15:03:50Z</time>
      </trkpt>
      <trkpt lat="47.75282" lon="7.05419">
        <ele>417</ele>
        <time>2016-07-31T15:04:05Z</time>
      </trkpt>
      <trkpt lat="47.75272" lon="7.05402">
        <ele>417</ele>
        <time>2016-07-31T15:04:18Z</time>
      </trkpt>
      <trkpt lat="47.75272" lon="7.05402">
        <ele>417</ele>
        <time>2016-07-31T15:04:25Z</time>
      </trkpt>
      <trkpt lat="47.75272" lon="7.05402">
        <ele>417</ele>
        <time>2016-07-31T15:04:26Z</time>
      </trkpt>
      <trkpt lat="47.75257" lon="7.05391">
        <ele>415</ele>
        <time>2016-07-31T15:04:35Z</time>
      </trkpt>
      <trkpt lat="47.75255" lon="7.05371">
        <ele>415</ele>
        <time>2016-07-31T15:04:47Z</time>
      </trkpt>
      <trkpt lat="47.75261" lon="7.05339">
        <ele>417</ele>
        <time>2016-07-31T15:05:04Z</time>
      </trkpt>
      <trkpt lat="47.75266" lon="7.05309">
        <ele>417</ele>
        <time>2016-07-31T15:05:19Z</time>
      </trkpt>
      <trkpt lat="47.75271" lon="7.05285">
        <ele>417</ele>
        <time>2016-07-31T15:05:33Z</time>
      </trkpt>
      <trkpt lat="47.75275" lon="7.05264">
        <ele>417</ele>
        <time>2016-07-31T15:05:47Z</time>
      </trkpt>
      <trkpt lat="47.75282" lon="7.05234">
        <ele>418</ele>
        <time>2016-07-31T15:06:04Z</time>
      </trkpt>
      <trkpt lat="47.75288" lon="7.05214">
        <ele>419</ele>
        <time>2016-07-31T15:06:23Z</time>
      </trkpt>
      <trkpt lat="47.7529" lon="7.05199">
        <ele>419</ele>
        <time>2016-07-31T15:06:32Z</time>
      </trkpt>
      <trkpt lat="47.75296" lon="7.05172">
        <ele>422</ele>
        <time>2016-07-31T15:06:48Z</time>
      </trkpt>
      <trkpt lat="47.753" lon="7.05145">
        <ele>423</ele>
        <time>2016-07-31T15:07:04Z</time>
      </trkpt>
      <trkpt lat="47.75305" lon="7.05117">
        <ele>421</ele>
        <time>2016-07-31T15:07:20Z</time>
      </trkpt>
      <trkpt lat="47.75315" lon="7.05095">
        <ele>421</ele>
        <time>2016-07-31T15:07:34Z</time>
      </trkpt>
      <trkpt lat="47.75327" lon="7.05078">
        <ele>420</ele>
        <time>2016-07-31T15:07:47Z</time>
      </trkpt>
      <trkpt lat="47.75335" lon="7.05061">
        <ele>422</ele>
        <time>2016-07-31T15:07:59Z</time>
      </trkpt>
      <trkpt lat="47.75335" lon="7.05061">
        <ele>369</ele>
        <time>2016-07-31T15:08:01Z</time>
      </trkpt>
      <trkpt lat="47.75335" lon="7.05061">
        <ele>369</ele>
        <time>2016-07-31T15:08:14Z</time>
      </trkpt>
      <trkpt lat="47.7534" lon="7.0504">
        <ele>419</ele>
        <time>2016-07-31T15:08:14Z</time>
      </trkpt>
      <trkpt lat="47.7534" lon="7.0504">
        <ele>368.8</ele>
        <time>2016-07-31T15:08:18Z</time>
      </trkpt>
      <trkpt lat="47.7534" lon="7.0504">
        <ele>368.8</ele>
        <time>2016-07-31T15:08:32Z</time>
      </trkpt>
    </trkseg>
  </trk>
</gpx>